sensor_id;sensor_type;location;lat;lon;timestamp;temperature;humidity
30399;DHT22;17195;50.838;7.214;2023-03-13T00:01:00;10.50;99.90
30399;DHT22;17195;50.838;7.214;2023-03-13T00:03:26;10.50;99.90
30399;DHT22;17195;50.838;7.214;2023-03-13T00:05:57;10.60;99.90
30399;DHT22;17195;50.838;7.214;2023-03-13T00:08:23;10.60;99.90
30399;DHT22;17195;50.838;7.214;2023-03-13T00:10:49;10.70;99.90
30399;DHT22;17195;50.838;7.214;2023-03-13T00:13:16;10.70;99.90
30399;DHT22;17195;50.838;7.214;2023-03-13T00:15:42;10.80;99.90
30399;DHT22;17195;50.838;7.214;2023-03-13T00:18:07;10.80;99.90
30399;DHT22;17195;50.838;7.214;2023-03-13T00:20:33;10.80;99.90
30399;DHT22;17195;50.838;7.214;2023-03-13T00:22:58;10.80;99.90
30399;DHT22;17195;50.838;7.214;2023-03-13T00:25:24;10.90;99.90
30399;DHT22;17195;50.838;7.214;2023-03-13T00:27:49;10.90;99.90
30399;DHT22;17195;50.838;7.214;2023-03-13T00:30:15;10.90;99.90
30399;DHT22;17195;50.838;7.214;2023-03-13T00:32:42;11.00;99.90
30399;DHT22;17195;50.838;7.214;2023-03-13T00:35:08;11.00;99.90
30399;DHT22;17195;50.838;7.214;2023-03-13T00:37:34;11.00;99.90
30399;DHT22;17195;50.838;7.214;2023-03-13T00:39:59;11.00;99.90
30399;DHT22;17195;50.838;7.214;2023-03-13T00:42:25;11.00;99.90
30399;DHT22;17195;50.838;7.214;2023-03-13T00:44:50;11.10;99.90
30399;DHT22;17195;50.838;7.214;2023-03-13T00:47:16;11.10;99.90
30399;DHT22;17195;50.838;7.214;2023-03-13T00:49:41;11.10;99.90
30399;DHT22;17195;50.838;7.214;2023-03-13T00:52:07;11.20;99.90
30399;DHT22;17195;50.838;7.214;2023-03-13T00:54:32;11.10;99.90
30399;DHT22;17195;50.838;7.214;2023-03-13T00:56:58;11.10;99.90
30399;DHT22;17195;50.838;7.214;2023-03-13T00:59:23;11.10;99.90
30399;DHT22;17195;50.838;7.214;2023-03-13T01:01:49;11.10;99.90
30399;DHT22;17195;50.838;7.214;2023-03-13T01:04:14;11.10;99.90
30399;DHT22;17195;50.838;7.214;2023-03-13T01:06:41;11.10;99.90
30399;DHT22;17195;50.838;7.214;2023-03-13T01:09:09;11.10;99.90
30399;DHT22;17195;50.838;7.214;2023-03-13T01:11:37;11.00;99.90
30399;DHT22;17195;50.838;7.214;2023-03-13T01:14:06;11.00;99.90
30399;DHT22;17195;50.838;7.214;2023-03-13T01:16:34;11.00;99.90
30399;DHT22;17195;50.838;7.214;2023-03-13T01:19:01;10.90;99.90
30399;DHT22;17195;50.838;7.214;2023-03-13T01:21:28;10.90;99.90
30399;DHT22;17195;50.838;7.214;2023-03-13T01:23:54;10.90;99.90
30399;DHT22;17195;50.838;7.214;2023-03-13T01:26:21;10.90;99.90
30399;DHT22;17195;50.838;7.214;2023-03-13T01:28:47;10.90;99.90
30399;DHT22;17195;50.838;7.214;2023-03-13T01:31:14;10.80;99.90
30399;DHT22;17195;50.838;7.214;2023-03-13T01:33:41;10.80;99.90
30399;DHT22;17195;50.838;7.214;2023-03-13T01:36:08;10.80;99.90
30399;DHT22;17195;50.838;7.214;2023-03-13T01:38:34;10.80;99.90
30399;DHT22;17195;50.838;7.214;2023-03-13T01:40:59;10.80;99.90
30399;DHT22;17195;50.838;7.214;2023-03-13T01:43:27;10.80;99.90
30399;DHT22;17195;50.838;7.214;2023-03-13T01:51:36;10.80;99.90
30399;DHT22;17195;50.838;7.214;2023-03-13T01:56:39;10.90;99.90
30399;DHT22;17195;50.838;7.214;2023-03-13T01:59:07;10.90;99.90
30399;DHT22;17195;50.838;7.214;2023-03-13T02:01:34;11.00;99.90
30399;DHT22;17195;50.838;7.214;2023-03-13T02:04:00;11.00;99.90
30399;DHT22;17195;50.838;7.214;2023-03-13T02:06:28;11.10;99.90
30399;DHT22;17195;50.838;7.214;2023-03-13T02:08:58;11.10;99.90
30399;DHT22;17195;50.838;7.214;2023-03-13T02:13:57;11.10;99.90
30399;DHT22;17195;50.838;7.214;2023-03-13T02:16:23;11.20;99.90
30399;DHT22;17195;50.838;7.214;2023-03-13T02:18:49;11.30;99.90
30399;DHT22;17195;50.838;7.214;2023-03-13T02:21:53;11.30;99.90
30399;DHT22;17195;50.838;7.214;2023-03-13T02:26:53;11.30;99.90
30399;DHT22;17195;50.838;7.214;2023-03-13T02:29:19;11.20;99.90
30399;DHT22;17195;50.838;7.214;2023-03-13T02:31:46;11.20;99.90
30399;DHT22;17195;50.838;7.214;2023-03-13T02:34:14;11.20;99.90
30399;DHT22;17195;50.838;7.214;2023-03-13T02:36:42;11.20;99.90
30399;DHT22;17195;50.838;7.214;2023-03-13T02:39:10;11.10;99.90
30399;DHT22;17195;50.838;7.214;2023-03-13T02:41:37;11.10;99.90
30399;DHT22;17195;50.838;7.214;2023-03-13T02:44:04;11.10;99.90
30399;DHT22;17195;50.838;7.214;2023-03-13T02:46:46;11.10;99.90
30399;DHT22;17195;50.838;7.214;2023-03-13T02:49:26;11.10;99.90
30399;DHT22;17195;50.838;7.214;2023-03-13T02:51:54;11.00;99.90
30399;DHT22;17195;50.838;7.214;2023-03-13T02:54:29;11.10;99.90
30399;DHT22;17195;50.838;7.214;2023-03-13T02:57:00;11.10;99.90
30399;DHT22;17195;50.838;7.214;2023-03-13T02:59:26;11.10;99.90
30399;DHT22;17195;50.838;7.214;2023-03-13T03:01:52;11.10;99.90
30399;DHT22;17195;50.838;7.214;2023-03-13T03:04:20;11.10;99.90
30399;DHT22;17195;50.838;7.214;2023-03-13T03:06:46;11.10;99.90
30399;DHT22;17195;50.838;7.214;2023-03-13T03:09:12;11.10;99.90
30399;DHT22;17195;50.838;7.214;2023-03-13T03:11:38;11.00;99.90
30399;DHT22;17195;50.838;7.214;2023-03-13T03:14:04;11.10;99.90
30399;DHT22;17195;50.838;7.214;2023-03-13T03:16:30;11.00;99.90
30399;DHT22;17195;50.838;7.214;2023-03-13T03:18:55;11.00;99.90
30399;DHT22;17195;50.838;7.214;2023-03-13T03:21:21;11.10;99.90
30399;DHT22;17195;50.838;7.214;2023-03-13T03:23:48;11.00;99.90
30399;DHT22;17195;50.838;7.214;2023-03-13T03:26:14;11.10;99.90
30399;DHT22;17195;50.838;7.214;2023-03-13T03:28:40;11.10;99.90
30399;DHT22;17195;50.838;7.214;2023-03-13T03:31:07;11.10;99.90
30399;DHT22;17195;50.838;7.214;2023-03-13T03:33:33;11.10;99.90
30399;DHT22;17195;50.838;7.214;2023-03-13T03:36:03;11.10;99.90
30399;DHT22;17195;50.838;7.214;2023-03-13T03:38:29;11.10;99.90
30399;DHT22;17195;50.838;7.214;2023-03-13T03:40:54;11.10;99.90
30399;DHT22;17195;50.838;7.214;2023-03-13T03:43:20;11.10;99.90
30399;DHT22;17195;50.838;7.214;2023-03-13T03:45:46;11.10;99.90
30399;DHT22;17195;50.838;7.214;2023-03-13T03:48:11;11.20;99.90
30399;DHT22;17195;50.838;7.214;2023-03-13T03:50:37;11.20;99.90
30399;DHT22;17195;50.838;7.214;2023-03-13T03:53:02;11.20;99.90
30399;DHT22;17195;50.838;7.214;2023-03-13T03:55:28;11.20;99.90
30399;DHT22;17195;50.838;7.214;2023-03-13T03:57:53;11.30;99.90
30399;DHT22;17195;50.838;7.214;2023-03-13T04:00:19;11.30;99.90
30399;DHT22;17195;50.838;7.214;2023-03-13T04:02:45;11.30;99.90
30399;DHT22;17195;50.838;7.214;2023-03-13T04:05:11;11.40;99.90
30399;DHT22;17195;50.838;7.214;2023-03-13T04:07:36;11.40;99.90
30399;DHT22;17195;50.838;7.214;2023-03-13T04:10:03;11.40;99.90
30399;DHT22;17195;50.838;7.214;2023-03-13T04:12:29;11.50;99.90
30399;DHT22;17195;50.838;7.214;2023-03-13T04:14:54;11.50;99.90
30399;DHT22;17195;50.838;7.214;2023-03-13T04:17:20;11.50;99.90
30399;DHT22;17195;50.838;7.214;2023-03-13T04:19:45;11.60;99.90
30399;DHT22;17195;50.838;7.214;2023-03-13T04:22:11;11.50;99.90
30399;DHT22;17195;50.838;7.214;2023-03-13T04:24:36;11.60;99.90
30399;DHT22;17195;50.838;7.214;2023-03-13T04:27:02;11.60;99.90
30399;DHT22;17195;50.838;7.214;2023-03-13T04:29:31;11.60;99.90
30399;DHT22;17195;50.838;7.214;2023-03-13T04:31:56;11.60;99.90
30399;DHT22;17195;50.838;7.214;2023-03-13T04:34:22;11.70;99.90
30399;DHT22;17195;50.838;7.214;2023-03-13T04:36:48;11.70;99.90
30399;DHT22;17195;50.838;7.214;2023-03-13T04:39:13;11.70;99.90
30399;DHT22;17195;50.838;7.214;2023-03-13T04:41:39;11.60;99.90
30399;DHT22;17195;50.838;7.214;2023-03-13T04:44:04;11.60;99.90
30399;DHT22;17195;50.838;7.214;2023-03-13T04:46:30;11.60;99.90
30399;DHT22;17195;50.838;7.214;2023-03-13T04:48:55;11.70;99.90
30399;DHT22;17195;50.838;7.214;2023-03-13T04:51:21;11.70;99.90
30399;DHT22;17195;50.838;7.214;2023-03-13T04:53:47;11.70;99.90
30399;DHT22;17195;50.838;7.214;2023-03-13T04:56:20;11.70;99.90
30399;DHT22;17195;50.838;7.214;2023-03-13T04:58:46;11.70;99.90
30399;DHT22;17195;50.838;7.214;2023-03-13T05:01:11;11.60;99.90
30399;DHT22;17195;50.838;7.214;2023-03-13T05:03:37;11.70;99.90
30399;DHT22;17195;50.838;7.214;2023-03-13T05:06:02;11.70;99.90
30399;DHT22;17195;50.838;7.214;2023-03-13T05:08:28;11.70;99.90
30399;DHT22;17195;50.838;7.214;2023-03-13T05:10:54;11.70;99.90
30399;DHT22;17195;50.838;7.214;2023-03-13T05:13:19;11.80;99.90
30399;DHT22;17195;50.838;7.214;2023-03-13T05:15:45;11.80;99.90
30399;DHT22;17195;50.838;7.214;2023-03-13T05:18:10;11.80;99.90
30399;DHT22;17195;50.838;7.214;2023-03-13T05:20:37;11.80;99.90
30399;DHT22;17195;50.838;7.214;2023-03-13T05:23:02;11.80;99.90
30399;DHT22;17195;50.838;7.214;2023-03-13T05:25:28;11.80;99.90
30399;DHT22;17195;50.838;7.214;2023-03-13T05:27:54;11.80;99.90
30399;DHT22;17195;50.838;7.214;2023-03-13T05:30:19;11.80;99.90
30399;DHT22;17195;50.838;7.214;2023-03-13T05:32:45;11.80;99.90
30399;DHT22;17195;50.838;7.214;2023-03-13T05:35:11;11.90;99.90
30399;DHT22;17195;50.838;7.214;2023-03-13T05:37:36;12.00;99.90
30399;DHT22;17195;50.838;7.214;2023-03-13T05:40:02;12.00;99.90
30399;DHT22;17195;50.838;7.214;2023-03-13T05:42:28;12.00;99.90
30399;DHT22;17195;50.838;7.214;2023-03-13T05:44:54;12.00;99.90
30399;DHT22;17195;50.838;7.214;2023-03-13T05:47:19;12.10;99.90
30399;DHT22;17195;50.838;7.214;2023-03-13T05:49:45;12.10;99.90
30399;DHT22;17195;50.838;7.214;2023-03-13T05:52:10;12.10;99.90
30399;DHT22;17195;50.838;7.214;2023-03-13T05:54:36;12.10;99.90
30399;DHT22;17195;50.838;7.214;2023-03-13T05:57:02;12.20;99.90
30399;DHT22;17195;50.838;7.214;2023-03-13T05:59:27;12.20;99.90
30399;DHT22;17195;50.838;7.214;2023-03-13T06:01:53;12.20;99.90
30399;DHT22;17195;50.838;7.214;2023-03-13T06:04:18;12.30;99.90
30399;DHT22;17195;50.838;7.214;2023-03-13T06:06:45;12.30;99.90
30399;DHT22;17195;50.838;7.214;2023-03-13T06:09:10;12.30;99.90
30399;DHT22;17195;50.838;7.214;2023-03-13T06:11:36;12.40;99.90
30399;DHT22;17195;50.838;7.214;2023-03-13T06:14:02;12.40;99.90
30399;DHT22;17195;50.838;7.214;2023-03-13T06:16:27;12.50;99.90
30399;DHT22;17195;50.838;7.214;2023-03-13T06:18:53;12.50;99.90
30399;DHT22;17195;50.838;7.214;2023-03-13T06:21:18;12.60;99.90
30399;DHT22;17195;50.838;7.214;2023-03-13T06:23:44;12.70;99.90
30399;DHT22;17195;50.838;7.214;2023-03-13T06:26:10;12.70;99.90
30399;DHT22;17195;50.838;7.214;2023-03-13T06:28:35;12.70;99.90
30399;DHT22;17195;50.838;7.214;2023-03-13T06:31:02;12.80;99.90
30399;DHT22;17195;50.838;7.214;2023-03-13T06:33:28;12.90;99.90
30399;DHT22;17195;50.838;7.214;2023-03-13T06:35:55;13.00;99.90
30399;DHT22;17195;50.838;7.214;2023-03-13T06:38:21;13.00;99.90
30399;DHT22;17195;50.838;7.214;2023-03-13T06:40:46;13.10;99.90
30399;DHT22;17195;50.838;7.214;2023-03-13T06:43:12;13.20;99.90
30399;DHT22;17195;50.838;7.214;2023-03-13T06:45:37;13.20;99.90
30399;DHT22;17195;50.838;7.214;2023-03-13T06:48:03;13.20;99.90
30399;DHT22;17195;50.838;7.214;2023-03-13T06:50:29;13.30;99.90
30399;DHT22;17195;50.838;7.214;2023-03-13T06:52:55;13.30;99.90
30399;DHT22;17195;50.838;7.214;2023-03-13T06:55:22;13.30;99.90
30399;DHT22;17195;50.838;7.214;2023-03-13T06:57:51;13.30;99.90
30399;DHT22;17195;50.838;7.214;2023-03-13T07:00:18;13.30;99.90
30399;DHT22;17195;50.838;7.214;2023-03-13T07:02:44;13.30;99.90
30399;DHT22;17195;50.838;7.214;2023-03-13T07:05:09;13.40;99.90
30399;DHT22;17195;50.838;7.214;2023-03-13T07:07:35;13.40;99.90
30399;DHT22;17195;50.838;7.214;2023-03-13T07:10:01;13.40;99.90
30399;DHT22;17195;50.838;7.214;2023-03-13T07:12:26;13.40;99.90
30399;DHT22;17195;50.838;7.214;2023-03-13T07:14:52;13.40;99.90
30399;DHT22;17195;50.838;7.214;2023-03-13T07:17:18;13.50;99.90
30399;DHT22;17195;50.838;7.214;2023-03-13T07:19:43;13.50;99.90
30399;DHT22;17195;50.838;7.214;2023-03-13T07:22:09;13.50;99.90
30399;DHT22;17195;50.838;7.214;2023-03-13T07:24:34;13.50;99.90
30399;DHT22;17195;50.838;7.214;2023-03-13T07:27:00;13.50;99.90
30399;DHT22;17195;50.838;7.214;2023-03-13T07:29:26;13.60;99.90
30399;DHT22;17195;50.838;7.214;2023-03-13T07:31:51;13.60;99.90
30399;DHT22;17195;50.838;7.214;2023-03-13T07:34:17;13.70;99.90
30399;DHT22;17195;50.838;7.214;2023-03-13T07:36:42;13.70;99.90
30399;DHT22;17195;50.838;7.214;2023-03-13T07:39:08;13.70;99.90
30399;DHT22;17195;50.838;7.214;2023-03-13T07:41:34;13.70;99.90
30399;DHT22;17195;50.838;7.214;2023-03-13T07:43:59;13.80;99.90
30399;DHT22;17195;50.838;7.214;2023-03-13T07:46:25;13.90;99.90
30399;DHT22;17195;50.838;7.214;2023-03-13T07:48:52;14.00;99.90
30399;DHT22;17195;50.838;7.214;2023-03-13T07:51:22;14.00;99.90
30399;DHT22;17195;50.838;7.214;2023-03-13T07:53:49;14.00;99.90
30399;DHT22;17195;50.838;7.214;2023-03-13T07:56:18;14.10;99.90
30399;DHT22;17195;50.838;7.214;2023-03-13T07:58:44;14.20;99.90
30399;DHT22;17195;50.838;7.214;2023-03-13T08:01:10;14.30;99.90
30399;DHT22;17195;50.838;7.214;2023-03-13T08:03:37;14.40;99.90
30399;DHT22;17195;50.838;7.214;2023-03-13T08:06:08;14.50;99.90
30399;DHT22;17195;50.838;7.214;2023-03-13T08:08:34;14.50;99.90
30399;DHT22;17195;50.838;7.214;2023-03-13T08:13:26;14.60;99.90
30399;DHT22;17195;50.838;7.214;2023-03-13T08:15:51;14.60;99.90
30399;DHT22;17195;50.838;7.214;2023-03-13T08:18:17;14.60;99.90
30399;DHT22;17195;50.838;7.214;2023-03-13T08:20:42;14.60;99.90
30399;DHT22;17195;50.838;7.214;2023-03-13T08:23:08;14.60;99.90
30399;DHT22;17195;50.838;7.214;2023-03-13T08:25:33;14.60;99.90
30399;DHT22;17195;50.838;7.214;2023-03-13T08:27:59;14.60;99.90
30399;DHT22;17195;50.838;7.214;2023-03-13T08:30:24;14.50;99.90
30399;DHT22;17195;50.838;7.214;2023-03-13T08:32:50;14.60;99.90
30399;DHT22;17195;50.838;7.214;2023-03-13T08:35:15;14.50;99.90
30399;DHT22;17195;50.838;7.214;2023-03-13T08:37:41;14.60;99.90
30399;DHT22;17195;50.838;7.214;2023-03-13T08:40:07;14.50;99.90
30399;DHT22;17195;50.838;7.214;2023-03-13T08:42:36;14.60;99.90
30399;DHT22;17195;50.838;7.214;2023-03-13T08:45:03;14.60;99.90
30399;DHT22;17195;50.838;7.214;2023-03-13T08:47:29;14.60;99.90
30399;DHT22;17195;50.838;7.214;2023-03-13T08:49:54;14.70;99.90
30399;DHT22;17195;50.838;7.214;2023-03-13T08:52:20;14.70;99.90
30399;DHT22;17195;50.838;7.214;2023-03-13T08:54:47;14.70;99.90
30399;DHT22;17195;50.838;7.214;2023-03-13T08:57:13;14.70;99.90
30399;DHT22;17195;50.838;7.214;2023-03-13T08:59:39;14.70;99.90
30399;DHT22;17195;50.838;7.214;2023-03-13T09:02:05;14.70;99.90
30399;DHT22;17195;50.838;7.214;2023-03-13T09:04:30;14.60;99.90
30399;DHT22;17195;50.838;7.214;2023-03-13T09:06:56;14.60;99.90
30399;DHT22;17195;50.838;7.214;2023-03-13T09:09:21;14.60;99.90
30399;DHT22;17195;50.838;7.214;2023-03-13T09:11:47;14.60;99.90
30399;DHT22;17195;50.838;7.214;2023-03-13T09:14:12;14.70;99.90
30399;DHT22;17195;50.838;7.214;2023-03-13T09:16:38;14.70;99.90
30399;DHT22;17195;50.838;7.214;2023-03-13T09:19:04;14.70;99.90
30399;DHT22;17195;50.838;7.214;2023-03-13T09:21:32;14.80;99.90
30399;DHT22;17195;50.838;7.214;2023-03-13T09:23:57;14.80;99.90
30399;DHT22;17195;50.838;7.214;2023-03-13T09:26:24;14.80;99.90
30399;DHT22;17195;50.838;7.214;2023-03-13T09:28:51;14.80;99.90
30399;DHT22;17195;50.838;7.214;2023-03-13T09:31:19;14.80;99.90
30399;DHT22;17195;50.838;7.214;2023-03-13T09:33:47;14.80;99.90
30399;DHT22;17195;50.838;7.214;2023-03-13T09:36:13;14.80;99.90
30399;DHT22;17195;50.838;7.214;2023-03-13T09:38:39;14.80;99.90
30399;DHT22;17195;50.838;7.214;2023-03-13T09:43:50;14.90;99.90
30399;DHT22;17195;50.838;7.214;2023-03-13T09:46:27;14.90;99.90
30399;DHT22;17195;50.838;7.214;2023-03-13T09:48:59;14.80;99.90
30399;DHT22;17195;50.838;7.214;2023-03-13T09:51:31;14.90;99.90
30399;DHT22;17195;50.838;7.214;2023-03-13T09:54:02;14.90;99.90
30399;DHT22;17195;50.838;7.214;2023-03-13T09:56:36;14.80;99.90
30399;DHT22;17195;50.838;7.214;2023-03-13T09:59:21;14.90;99.90
30399;DHT22;17195;50.838;7.214;2023-03-13T10:01:49;14.90;99.90
30399;DHT22;17195;50.838;7.214;2023-03-13T10:06:55;14.90;99.90
30399;DHT22;17195;50.838;7.214;2023-03-13T10:09:31;15.00;99.90
30399;DHT22;17195;50.838;7.214;2023-03-13T10:12:17;14.90;99.90
30399;DHT22;17195;50.838;7.214;2023-03-13T10:14:52;15.00;99.90
30399;DHT22;17195;50.838;7.214;2023-03-13T10:17:36;15.10;99.90
30399;DHT22;17195;50.838;7.214;2023-03-13T10:20:28;15.10;99.90
30399;DHT22;17195;50.838;7.214;2023-03-13T10:23:02;15.10;99.90
30399;DHT22;17195;50.838;7.214;2023-03-13T10:27:57;15.20;99.90
30399;DHT22;17195;50.838;7.214;2023-03-13T10:30:24;15.20;99.90
30399;DHT22;17195;50.838;7.214;2023-03-13T10:32:53;15.30;99.90
30399;DHT22;17195;50.838;7.214;2023-03-13T10:35:24;15.30;99.90
30399;DHT22;17195;50.838;7.214;2023-03-13T10:38:18;15.40;99.90
30399;DHT22;17195;50.838;7.214;2023-03-13T10:40:59;15.50;99.90
30399;DHT22;17195;50.838;7.214;2023-03-13T10:43:27;15.50;99.90
30399;DHT22;17195;50.838;7.214;2023-03-13T10:45:53;15.60;99.90
30399;DHT22;17195;50.838;7.214;2023-03-13T10:50:47;15.60;99.90
30399;DHT22;17195;50.838;7.214;2023-03-13T10:53:32;15.60;99.90
30399;DHT22;17195;50.838;7.214;2023-03-13T10:56:15;15.60;99.90
30399;DHT22;17195;50.838;7.214;2023-03-13T10:58:45;15.60;99.90
30399;DHT22;17195;50.838;7.214;2023-03-13T11:03:43;15.70;99.90
30399;DHT22;17195;50.838;7.214;2023-03-13T11:09:03;15.70;99.90
30399;DHT22;17195;50.838;7.214;2023-03-13T11:11:29;15.70;99.90
30399;DHT22;17195;50.838;7.214;2023-03-13T11:14:07;15.80;99.90
30399;DHT22;17195;50.838;7.214;2023-03-13T11:16:39;16.00;99.90
30399;DHT22;17195;50.838;7.214;2023-03-13T11:27:47;16.90;99.90
30399;DHT22;17195;50.838;7.214;2023-03-13T11:30:29;17.10;99.90
30399;DHT22;17195;50.838;7.214;2023-03-13T11:33:09;17.10;99.90
30399;DHT22;17195;50.838;7.214;2023-03-13T11:38:52;17.20;99.90
30399;DHT22;17195;50.838;7.214;2023-03-13T11:44:42;16.90;99.90
30399;DHT22;17195;50.838;7.214;2023-03-13T11:47:40;16.80;99.90
30399;DHT22;17195;50.838;7.214;2023-03-13T11:50:22;16.80;99.90
30399;DHT22;17195;50.838;7.214;2023-03-13T11:56:07;17.10;99.90
30399;DHT22;17195;50.838;7.214;2023-03-13T11:59:02;17.10;99.90
30399;DHT22;17195;50.838;7.214;2023-03-13T12:01:34;17.20;99.90
30399;DHT22;17195;50.838;7.214;2023-03-13T12:07:01;17.30;99.90
30399;DHT22;17195;50.838;7.214;2023-03-13T12:09:40;17.30;99.90
30399;DHT22;17195;50.838;7.214;2023-03-13T12:12:41;17.30;99.90
30399;DHT22;17195;50.838;7.214;2023-03-13T12:15:27;17.30;99.90
30399;DHT22;17195;50.838;7.214;2023-03-13T12:18:45;17.30;99.90
30399;DHT22;17195;50.838;7.214;2023-03-13T12:23:39;17.40;99.90
30399;DHT22;17195;50.838;7.214;2023-03-13T12:26:13;17.30;99.90
30399;DHT22;17195;50.838;7.214;2023-03-13T12:28:44;17.30;99.90
30399;DHT22;17195;50.838;7.214;2023-03-13T12:34:26;17.30;99.90
30399;DHT22;17195;50.838;7.214;2023-03-13T12:37:20;17.20;99.90
30399;DHT22;17195;50.838;7.214;2023-03-13T12:40:10;17.10;99.90
30399;DHT22;17195;50.838;7.214;2023-03-13T12:42:44;17.00;99.90
30399;DHT22;17195;50.838;7.214;2023-03-13T12:45:19;17.00;99.90
30399;DHT22;17195;50.838;7.214;2023-03-13T12:48:08;17.10;99.90
30399;DHT22;17195;50.838;7.214;2023-03-13T12:59:15;17.50;99.90
30399;DHT22;17195;50.838;7.214;2023-03-13T13:01:47;17.40;99.90
30399;DHT22;17195;50.838;7.214;2023-03-13T13:04:20;17.40;99.90
30399;DHT22;17195;50.838;7.214;2023-03-13T13:07:02;17.30;99.90
30399;DHT22;17195;50.838;7.214;2023-03-13T13:09:31;17.20;99.90
30399;DHT22;17195;50.838;7.214;2023-03-13T13:12:02;17.20;99.90
30399;DHT22;17195;50.838;7.214;2023-03-13T13:25:01;16.80;99.90
30399;DHT22;17195;50.838;7.214;2023-03-13T13:27:47;16.70;99.90
30399;DHT22;17195;50.838;7.214;2023-03-13T13:30:29;16.60;99.90
30399;DHT22;17195;50.838;7.214;2023-03-13T13:38:34;16.80;99.90
30399;DHT22;17195;50.838;7.214;2023-03-13T13:43:43;16.90;99.90
30399;DHT22;17195;50.838;7.214;2023-03-13T13:46:31;16.90;99.90
30399;DHT22;17195;50.838;7.214;2023-03-13T13:51:31;17.10;99.90
30399;DHT22;17195;50.838;7.214;2023-03-13T13:53:58;17.10;99.90
30399;DHT22;17195;50.838;7.214;2023-03-13T14:01:28;17.00;99.90
30399;DHT22;17195;50.838;7.214;2023-03-13T14:04:04;17.00;99.90
30399;DHT22;17195;50.838;7.214;2023-03-13T14:06:35;16.90;99.90
30399;DHT22;17195;50.838;7.214;2023-03-13T14:09:23;16.90;99.90
30399;DHT22;17195;50.838;7.214;2023-03-13T14:11:51;16.90;99.90
30399;DHT22;17195;50.838;7.214;2023-03-13T14:14:19;17.00;99.90
30399;DHT22;17195;50.838;7.214;2023-03-13T14:16:55;17.00;99.90
30399;DHT22;17195;50.838;7.214;2023-03-13T14:19:24;17.00;99.90
30399;DHT22;17195;50.838;7.214;2023-03-13T14:21:55;16.90;99.90
30399;DHT22;17195;50.838;7.214;2023-03-13T14:24:21;16.90;99.90
30399;DHT22;17195;50.838;7.214;2023-03-13T14:26:47;16.90;99.90
30399;DHT22;17195;50.838;7.214;2023-03-13T14:29:18;16.90;99.90
30399;DHT22;17195;50.838;7.214;2023-03-13T14:31:51;17.00;99.90
30399;DHT22;17195;50.838;7.214;2023-03-13T14:34:17;17.10;99.90
30399;DHT22;17195;50.838;7.214;2023-03-13T14:36:51;17.30;99.90
30399;DHT22;17195;50.838;7.214;2023-03-13T14:39:35;17.40;99.90
30399;DHT22;17195;50.838;7.214;2023-03-13T14:42:13;17.40;99.90
30399;DHT22;17195;50.838;7.214;2023-03-13T14:44:39;17.40;99.90
30399;DHT22;17195;50.838;7.214;2023-03-13T14:47:16;17.40;99.90
30399;DHT22;17195;50.838;7.214;2023-03-13T14:49:45;17.30;99.90
30399;DHT22;17195;50.838;7.214;2023-03-13T14:52:25;17.20;99.90
30399;DHT22;17195;50.838;7.214;2023-03-13T14:54:52;17.10;99.90
30399;DHT22;17195;50.838;7.214;2023-03-13T14:57:26;17.00;99.90
30399;DHT22;17195;50.838;7.214;2023-03-13T14:59:52;17.00;99.90
30399;DHT22;17195;50.838;7.214;2023-03-13T15:02:28;17.00;99.90
30399;DHT22;17195;50.838;7.214;2023-03-13T15:05:02;17.00;99.90
30399;DHT22;17195;50.838;7.214;2023-03-13T15:07:52;17.00;99.90
30399;DHT22;17195;50.838;7.214;2023-03-13T15:10:21;16.90;99.90
30399;DHT22;17195;50.838;7.214;2023-03-13T15:12:47;16.90;99.90
30399;DHT22;17195;50.838;7.214;2023-03-13T15:15:13;16.90;99.90
30399;DHT22;17195;50.838;7.214;2023-03-13T15:17:38;16.90;99.90
30399;DHT22;17195;50.838;7.214;2023-03-13T15:20:04;16.80;99.90
30399;DHT22;17195;50.838;7.214;2023-03-13T15:22:36;16.90;99.90
30399;DHT22;17195;50.838;7.214;2023-03-13T15:25:08;16.90;99.90
30399;DHT22;17195;50.838;7.214;2023-03-13T15:27:38;16.90;99.90
30399;DHT22;17195;50.838;7.214;2023-03-13T15:30:04;17.00;99.90
30399;DHT22;17195;50.838;7.214;2023-03-13T15:32:35;17.00;99.90
30399;DHT22;17195;50.838;7.214;2023-03-13T15:35:04;17.20;99.90
30399;DHT22;17195;50.838;7.214;2023-03-13T15:37:35;17.20;99.90
30399;DHT22;17195;50.838;7.214;2023-03-13T15:40:01;17.20;99.90
30399;DHT22;17195;50.838;7.214;2023-03-13T15:42:31;17.20;99.90
30399;DHT22;17195;50.838;7.214;2023-03-13T15:44:57;17.20;99.90
30399;DHT22;17195;50.838;7.214;2023-03-13T15:47:22;17.10;99.90
30399;DHT22;17195;50.838;7.214;2023-03-13T15:49:48;17.10;99.90
30399;DHT22;17195;50.838;7.214;2023-03-13T15:52:22;17.00;99.90
30399;DHT22;17195;50.838;7.214;2023-03-13T15:54:48;17.00;99.90
30399;DHT22;17195;50.838;7.214;2023-03-13T15:57:17;17.20;99.90
30399;DHT22;17195;50.838;7.214;2023-03-13T15:59:44;18.10;99.90
30399;DHT22;17195;50.838;7.214;2023-03-13T16:02:14;19.50;99.90
30399;DHT22;17195;50.838;7.214;2023-03-13T16:04:41;19.90;99.90
30399;DHT22;17195;50.838;7.214;2023-03-13T16:07:10;20.10;99.90
30399;DHT22;17195;50.838;7.214;2023-03-13T16:09:36;19.60;99.90
30399;DHT22;17195;50.838;7.214;2023-03-13T16:12:02;19.20;99.90
30399;DHT22;17195;50.838;7.214;2023-03-13T16:14:28;18.50;99.90
30399;DHT22;17195;50.838;7.214;2023-03-13T16:16:53;18.00;99.90
30399;DHT22;17195;50.838;7.214;2023-03-13T16:19:19;18.10;99.90
30399;DHT22;17195;50.838;7.214;2023-03-13T16:21:44;18.50;99.90
30399;DHT22;17195;50.838;7.214;2023-03-13T16:24:13;19.50;99.90
30399;DHT22;17195;50.838;7.214;2023-03-13T16:26:39;19.20;99.90
30399;DHT22;17195;50.838;7.214;2023-03-13T16:29:04;19.60;99.90
30399;DHT22;17195;50.838;7.214;2023-03-13T16:31:31;20.10;99.90
30399;DHT22;17195;50.838;7.214;2023-03-13T16:33:58;20.00;99.90
30399;DHT22;17195;50.838;7.214;2023-03-13T16:36:26;19.70;99.90
30399;DHT22;17195;50.838;7.214;2023-03-13T16:38:56;19.10;99.90
30399;DHT22;17195;50.838;7.214;2023-03-13T16:41:24;18.70;99.90
30399;DHT22;17195;50.838;7.214;2023-03-13T16:43:50;18.10;99.90
30399;DHT22;17195;50.838;7.214;2023-03-13T16:46:24;17.60;99.90
30399;DHT22;17195;50.838;7.214;2023-03-13T16:48:51;17.40;99.90
30399;DHT22;17195;50.838;7.214;2023-03-13T16:51:20;17.10;99.90
30399;DHT22;17195;50.838;7.214;2023-03-13T16:53:47;16.90;99.90
30399;DHT22;17195;50.838;7.214;2023-03-13T16:58:52;16.50;99.90
30399;DHT22;17195;50.838;7.214;2023-03-13T17:01:18;16.40;99.90
30399;DHT22;17195;50.838;7.214;2023-03-13T17:03:44;16.30;99.90
30399;DHT22;17195;50.838;7.214;2023-03-13T17:06:13;16.20;99.90
30399;DHT22;17195;50.838;7.214;2023-03-13T17:08:39;16.10;99.90
30399;DHT22;17195;50.838;7.214;2023-03-13T17:11:06;16.10;99.90
30399;DHT22;17195;50.838;7.214;2023-03-13T17:13:31;16.00;99.90
30399;DHT22;17195;50.838;7.214;2023-03-13T17:15:57;15.90;99.90